Mica, Washington
Current Conditions -  °F | °C
As of 8:06 PM on Tuesday 27 Jan 2015 (Local Time) from KSFF Reporting Station
Broken Clouds Broken Clouds  
Wind Chill: 35°   Ceiling: 800
Heat Index: 39°   Visibility: 10mi
Dew Point: 35°   Wind: 6mph
Humidity: 86%   Direction: 240°WSW
Pressure: 30.09"   Gusts: NA
Location:  47.56°N, 117.21°W
Report Text: KSFF 280406Z AUTO 24005KT 10SM BKN008 BKN100 BKN120 04/02 A3009 RMK AO2 T00390017
Loading
Personal Weather Stations






























Interactive Weather Map New forecast layout! Learn more

10-Day Weather Forecast

Advertisements
Track Severe Weather on mobile